sensor_id;sensor_type;location;lat;lon;timestamp;P1;durP1;ratioP1;P2;durP2;ratioP2
21360;SDS011;10839;43.206;23.550;2022-12-29T00:01:19;33.95;;;16.48;;
21360;SDS011;10839;43.206;23.550;2022-12-29T00:03:48;31.40;;;15.65;;
21360;SDS011;10839;43.206;23.550;2022-12-29T00:06:13;31.63;;;15.02;;
21360;SDS011;10839;43.206;23.550;2022-12-29T00:08:39;31.58;;;14.85;;
21360;SDS011;10839;43.206;23.550;2022-12-29T00:11:10;30.15;;;14.90;;
21360;SDS011;10839;43.206;23.550;2022-12-29T00:13:39;29.08;;;15.38;;
21360;SDS011;10839;43.206;23.550;2022-12-29T00:16:24;31.95;;;15.40;;
21360;SDS011;10839;43.206;23.550;2022-12-29T00:18:51;28.63;;;14.73;;
21360;SDS011;10839;43.206;23.550;2022-12-29T00:21:18;29.58;;;14.18;;
21360;SDS011;10839;43.206;23.550;2022-12-29T00:24:04;34.55;;;15.38;;
21360;SDS011;10839;43.206;23.550;2022-12-29T00:27:07;34.13;;;14.40;;
21360;SDS011;10839;43.206;23.550;2022-12-29T00:29:54;31.55;;;15.98;;
21360;SDS011;10839;43.206;23.550;2022-12-29T00:32:39;35.70;;;16.52;;
21360;SDS011;10839;43.206;23.550;2022-12-29T00:35:30;28.88;;;15.65;;
21360;SDS011;10839;43.206;23.550;2022-12-29T00:38:01;30.48;;;15.38;;
21360;SDS011;10839;43.206;23.550;2022-12-29T00:40:48;29.05;;;13.70;;
21360;SDS011;10839;43.206;23.550;2022-12-29T00:43:32;30.58;;;13.55;;
21360;SDS011;10839;43.206;23.550;2022-12-29T00:46:33;27.00;;;12.80;;
21360;SDS011;10839;43.206;23.550;2022-12-29T00:49:00;28.13;;;13.52;;
21360;SDS011;10839;43.206;23.550;2022-12-29T00:51:45;28.88;;;13.88;;
21360;SDS011;10839;43.206;23.550;2022-12-29T00:54:11;28.83;;;13.18;;
21360;SDS011;10839;43.206;23.550;2022-12-29T00:56:38;23.92;;;12.93;;
21360;SDS011;10839;43.206;23.550;2022-12-29T00:59:05;27.83;;;12.02;;
21360;SDS011;10839;43.206;23.550;2022-12-29T01:01:33;25.45;;;12.02;;
21360;SDS011;10839;43.206;23.550;2022-12-29T01:04:00;25.02;;;13.02;;
21360;SDS011;10839;43.206;23.550;2022-12-29T01:06:26;24.63;;;13.27;;
21360;SDS011;10839;43.206;23.550;2022-12-29T01:08:52;29.67;;;13.88;;
21360;SDS011;10839;43.206;23.550;2022-12-29T01:11:37;27.40;;;13.68;;
21360;SDS011;10839;43.206;23.550;2022-12-29T01:14:05;32.40;;;14.75;;
21360;SDS011;10839;43.206;23.550;2022-12-29T01:16:31;30.85;;;14.80;;
21360;SDS011;10839;43.206;23.550;2022-12-29T01:18:57;26.70;;;14.38;;
21360;SDS011;10839;43.206;23.550;2022-12-29T01:21:23;30.60;;;15.13;;
21360;SDS011;10839;43.206;23.550;2022-12-29T01:23:50;27.27;;;13.38;;
21360;SDS011;10839;43.206;23.550;2022-12-29T01:26:16;29.98;;;14.05;;
21360;SDS011;10839;43.206;23.550;2022-12-29T01:28:43;33.53;;;13.93;;
21360;SDS011;10839;43.206;23.550;2022-12-29T01:31:10;25.70;;;12.95;;
21360;SDS011;10839;43.206;23.550;2022-12-29T01:33:37;24.80;;;13.07;;
21360;SDS011;10839;43.206;23.550;2022-12-29T01:36:04;25.55;;;12.35;;
21360;SDS011;10839;43.206;23.550;2022-12-29T01:38:33;25.35;;;12.10;;
21360;SDS011;10839;43.206;23.550;2022-12-29T01:41:00;21.63;;;11.60;;
21360;SDS011;10839;43.206;23.550;2022-12-29T01:46:25;24.38;;;11.52;;
21360;SDS011;10839;43.206;23.550;2022-12-29T01:51:33;25.85;;;12.82;;
21360;SDS011;10839;43.206;23.550;2022-12-29T01:54:04;29.50;;;12.55;;
21360;SDS011;10839;43.206;23.550;2022-12-29T01:56:37;29.13;;;12.48;;
21360;SDS011;10839;43.206;23.550;2022-12-29T01:59:04;26.98;;;13.30;;
21360;SDS011;10839;43.206;23.550;2022-12-29T02:01:36;27.13;;;13.35;;
21360;SDS011;10839;43.206;23.550;2022-12-29T02:04:02;25.13;;;12.32;;
21360;SDS011;10839;43.206;23.550;2022-12-29T02:06:31;29.80;;;13.15;;
21360;SDS011;10839;43.206;23.550;2022-12-29T02:09:02;25.85;;;12.93;;
21360;SDS011;10839;43.206;23.550;2022-12-29T02:11:28;26.52;;;12.02;;
21360;SDS011;10839;43.206;23.550;2022-12-29T02:13:55;23.40;;;11.82;;
21360;SDS011;10839;43.206;23.550;2022-12-29T02:31:09;21.30;;;10.68;;
21360;SDS011;10839;43.206;23.550;2022-12-29T02:39:36;21.20;;;10.73;;
21360;SDS011;10839;43.206;23.550;2022-12-29T02:50:54;23.30;;;11.35;;
21360;SDS011;10839;43.206;23.550;2022-12-29T02:53:26;25.73;;;12.57;;
21360;SDS011;10839;43.206;23.550;2022-12-29T02:56:12;23.42;;;11.75;;
21360;SDS011;10839;43.206;23.550;2022-12-29T02:58:38;27.27;;;12.05;;
21360;SDS011;10839;43.206;23.550;2022-12-29T03:08:44;28.05;;;13.38;;
21360;SDS011;10839;43.206;23.550;2022-12-29T03:11:16;26.35;;;12.00;;
21360;SDS011;10839;43.206;23.550;2022-12-29T03:16:45;23.80;;;11.27;;
21360;SDS011;10839;43.206;23.550;2022-12-29T03:21:55;26.17;;;12.43;;
21360;SDS011;10839;43.206;23.550;2022-12-29T03:25:05;27.25;;;12.60;;
21360;SDS011;10839;43.206;23.550;2022-12-29T03:27:41;31.00;;;15.55;;
21360;SDS011;10839;43.206;23.550;2022-12-29T03:32:43;30.10;;;14.32;;
21360;SDS011;10839;43.206;23.550;2022-12-29T03:35:14;29.45;;;14.13;;
21360;SDS011;10839;43.206;23.550;2022-12-29T03:37:55;26.02;;;13.20;;
21360;SDS011;10839;43.206;23.550;2022-12-29T03:40:28;22.58;;;11.65;;
21360;SDS011;10839;43.206;23.550;2022-12-29T03:42:55;24.67;;;11.80;;
21360;SDS011;10839;43.206;23.550;2022-12-29T03:45:21;25.88;;;13.50;;
21360;SDS011;10839;43.206;23.550;2022-12-29T03:47:48;25.23;;;12.32;;
21360;SDS011;10839;43.206;23.550;2022-12-29T03:50:15;22.67;;;11.32;;
21360;SDS011;10839;43.206;23.550;2022-12-29T03:52:41;24.95;;;12.05;;
21360;SDS011;10839;43.206;23.550;2022-12-29T03:55:07;35.58;;;16.77;;
21360;SDS011;10839;43.206;23.550;2022-12-29T03:57:34;36.72;;;17.65;;
21360;SDS011;10839;43.206;23.550;2022-12-29T04:00:05;30.67;;;15.05;;
21360;SDS011;10839;43.206;23.550;2022-12-29T04:02:40;31.13;;;14.40;;
21360;SDS011;10839;43.206;23.550;2022-12-29T04:05:08;25.30;;;12.43;;
21360;SDS011;10839;43.206;23.550;2022-12-29T04:07:34;23.83;;;11.35;;
21360;SDS011;10839;43.206;23.550;2022-12-29T04:10:02;27.58;;;13.38;;
21360;SDS011;10839;43.206;23.550;2022-12-29T04:12:32;32.35;;;14.82;;
21360;SDS011;10839;43.206;23.550;2022-12-29T04:14:59;24.60;;;13.85;;
21360;SDS011;10839;43.206;23.550;2022-12-29T04:17:24;30.88;;;14.73;;
21360;SDS011;10839;43.206;23.550;2022-12-29T04:19:52;31.77;;;14.82;;
21360;SDS011;10839;43.206;23.550;2022-12-29T04:22:38;40.58;;;16.42;;
21360;SDS011;10839;43.206;23.550;2022-12-29T04:25:04;176.80;;;50.95;;
21360;SDS011;10839;43.206;23.550;2022-12-29T04:27:32;308.38;;;92.85;;
21360;SDS011;10839;43.206;23.550;2022-12-29T04:30:16;205.60;;;60.80;;
21360;SDS011;10839;43.206;23.550;2022-12-29T04:33:01;140.40;;;46.58;;
21360;SDS011;10839;43.206;23.550;2022-12-29T04:35:28;121.55;;;41.95;;
21360;SDS011;10839;43.206;23.550;2022-12-29T04:37:54;90.55;;;31.83;;
21360;SDS011;10839;43.206;23.550;2022-12-29T04:40:19;79.90;;;29.80;;
21360;SDS011;10839;43.206;23.550;2022-12-29T04:42:45;54.03;;;24.27;;
21360;SDS011;10839;43.206;23.550;2022-12-29T04:45:11;44.47;;;20.65;;
21360;SDS011;10839;43.206;23.550;2022-12-29T04:47:56;47.10;;;21.15;;
21360;SDS011;10839;43.206;23.550;2022-12-29T04:50:42;25.63;;;13.65;;
21360;SDS011;10839;43.206;23.550;2022-12-29T04:53:16;63.70;;;27.35;;
21360;SDS011;10839;43.206;23.550;2022-12-29T04:55:43;108.65;;;43.63;;
21360;SDS011;10839;43.206;23.550;2022-12-29T04:58:09;37.28;;;17.75;;
21360;SDS011;10839;43.206;23.550;2022-12-29T05:00:36;24.65;;;10.57;;
21360;SDS011;10839;43.206;23.550;2022-12-29T05:03:02;24.38;;;12.35;;
21360;SDS011;10839;43.206;23.550;2022-12-29T05:05:29;27.13;;;12.38;;
21360;SDS011;10839;43.206;23.550;2022-12-29T05:07:56;26.77;;;13.98;;
21360;SDS011;10839;43.206;23.550;2022-12-29T05:10:22;30.77;;;15.45;;
21360;SDS011;10839;43.206;23.550;2022-12-29T05:12:51;30.20;;;14.85;;
21360;SDS011;10839;43.206;23.550;2022-12-29T05:15:17;33.72;;;16.10;;
21360;SDS011;10839;43.206;23.550;2022-12-29T05:17:43;34.83;;;16.40;;
21360;SDS011;10839;43.206;23.550;2022-12-29T05:20:09;31.20;;;16.02;;
21360;SDS011;10839;43.206;23.550;2022-12-29T05:22:36;49.95;;;20.38;;
21360;SDS011;10839;43.206;23.550;2022-12-29T05:25:03;39.55;;;18.70;;
21360;SDS011;10839;43.206;23.550;2022-12-29T05:27:35;50.45;;;23.05;;
21360;SDS011;10839;43.206;23.550;2022-12-29T05:30:12;52.20;;;24.73;;
21360;SDS011;10839;43.206;23.550;2022-12-29T05:32:39;203.90;;;80.47;;
21360;SDS011;10839;43.206;23.550;2022-12-29T05:35:06;72.70;;;32.33;;
21360;SDS011;10839;43.206;23.550;2022-12-29T05:37:33;72.55;;;30.98;;
21360;SDS011;10839;43.206;23.550;2022-12-29T05:39:59;67.72;;;30.25;;
21360;SDS011;10839;43.206;23.550;2022-12-29T05:42:25;80.28;;;36.90;;
21360;SDS011;10839;43.206;23.550;2022-12-29T05:44:57;100.43;;;44.88;;
21360;SDS011;10839;43.206;23.550;2022-12-29T05:47:34;78.22;;;33.95;;
21360;SDS011;10839;43.206;23.550;2022-12-29T05:50:09;48.80;;;23.27;;
21360;SDS011;10839;43.206;23.550;2022-12-29T05:52:53;56.63;;;23.63;;
21360;SDS011;10839;43.206;23.550;2022-12-29T05:55:20;49.20;;;22.15;;
21360;SDS011;10839;43.206;23.550;2022-12-29T05:57:48;49.20;;;22.15;;
21360;SDS011;10839;43.206;23.550;2022-12-29T06:00:15;45.92;;;22.33;;
21360;SDS011;10839;43.206;23.550;2022-12-29T06:02:42;213.70;;;91.00;;
21360;SDS011;10839;43.206;23.550;2022-12-29T06:05:08;119.22;;;46.97;;
21360;SDS011;10839;43.206;23.550;2022-12-29T06:07:36;49.35;;;22.83;;
21360;SDS011;10839;43.206;23.550;2022-12-29T06:10:03;42.80;;;21.30;;
21360;SDS011;10839;43.206;23.550;2022-12-29T06:12:36;49.58;;;24.42;;
21360;SDS011;10839;43.206;23.550;2022-12-29T06:15:03;55.45;;;25.73;;
21360;SDS011;10839;43.206;23.550;2022-12-29T06:17:29;51.65;;;26.02;;
21360;SDS011;10839;43.206;23.550;2022-12-29T06:19:55;44.40;;;23.60;;
21360;SDS011;10839;43.206;23.550;2022-12-29T06:22:21;47.25;;;23.05;;
21360;SDS011;10839;43.206;23.550;2022-12-29T06:24:47;40.45;;;21.73;;
21360;SDS011;10839;43.206;23.550;2022-12-29T06:27:13;36.92;;;18.70;;
21360;SDS011;10839;43.206;23.550;2022-12-29T06:29:39;35.83;;;20.02;;
21360;SDS011;10839;43.206;23.550;2022-12-29T06:32:07;34.15;;;19.45;;
21360;SDS011;10839;43.206;23.550;2022-12-29T06:34:34;45.75;;;25.08;;
21360;SDS011;10839;43.206;23.550;2022-12-29T06:37:00;77.90;;;38.55;;
21360;SDS011;10839;43.206;23.550;2022-12-29T06:39:27;39.42;;;21.05;;
21360;SDS011;10839;43.206;23.550;2022-12-29T06:42:01;40.30;;;21.52;;
21360;SDS011;10839;43.206;23.550;2022-12-29T06:44:45;45.95;;;24.88;;
21360;SDS011;10839;43.206;23.550;2022-12-29T06:47:11;58.80;;;29.88;;
21360;SDS011;10839;43.206;23.550;2022-12-29T06:49:37;79.45;;;40.65;;
21360;SDS011;10839;43.206;23.550;2022-12-29T06:52:03;42.42;;;24.58;;
21360;SDS011;10839;43.206;23.550;2022-12-29T06:54:30;48.85;;;27.98;;
21360;SDS011;10839;43.206;23.550;2022-12-29T06:56:56;46.70;;;26.08;;
21360;SDS011;10839;43.206;23.550;2022-12-29T06:59:23;44.00;;;24.45;;
21360;SDS011;10839;43.206;23.550;2022-12-29T07:01:49;48.10;;;24.40;;
21360;SDS011;10839;43.206;23.550;2022-12-29T07:04:17;51.92;;;26.45;;
21360;SDS011;10839;43.206;23.550;2022-12-29T07:06:43;55.80;;;29.17;;
21360;SDS011;10839;43.206;23.550;2022-12-29T07:09:09;49.92;;;26.88;;
21360;SDS011;10839;43.206;23.550;2022-12-29T07:11:35;57.30;;;29.00;;
21360;SDS011;10839;43.206;23.550;2022-12-29T07:14:02;55.05;;;26.50;;
21360;SDS011;10839;43.206;23.550;2022-12-29T07:16:28;51.05;;;26.88;;
21360;SDS011;10839;43.206;23.550;2022-12-29T07:18:55;54.70;;;27.50;;
21360;SDS011;10839;43.206;23.550;2022-12-29T07:21:22;60.47;;;30.63;;
21360;SDS011;10839;43.206;23.550;2022-12-29T07:23:48;60.05;;;30.25;;
21360;SDS011;10839;43.206;23.550;2022-12-29T07:26:14;68.68;;;36.13;;
21360;SDS011;10839;43.206;23.550;2022-12-29T07:28:43;59.85;;;31.58;;
21360;SDS011;10839;43.206;23.550;2022-12-29T07:31:12;65.65;;;33.35;;
21360;SDS011;10839;43.206;23.550;2022-12-29T07:33:41;59.75;;;33.53;;
21360;SDS011;10839;43.206;23.550;2022-12-29T07:36:07;67.22;;;36.30;;
21360;SDS011;10839;43.206;23.550;2022-12-29T07:38:33;79.47;;;44.42;;
21360;SDS011;10839;43.206;23.550;2022-12-29T07:40:59;75.88;;;42.88;;
21360;SDS011;10839;43.206;23.550;2022-12-29T07:43:24;61.15;;;34.95;;
21360;SDS011;10839;43.206;23.550;2022-12-29T07:46:09;55.90;;;31.48;;
21360;SDS011;10839;43.206;23.550;2022-12-29T07:48:35;53.90;;;28.25;;
21360;SDS011;10839;43.206;23.550;2022-12-29T07:51:01;44.78;;;25.58;;
21360;SDS011;10839;43.206;23.550;2022-12-29T07:53:27;51.28;;;26.45;;
21360;SDS011;10839;43.206;23.550;2022-12-29T07:55:52;51.47;;;25.38;;
21360;SDS011;10839;43.206;23.550;2022-12-29T07:58:18;57.00;;;26.73;;
21360;SDS011;10839;43.206;23.550;2022-12-29T08:00:44;87.00;;;43.38;;
21360;SDS011;10839;43.206;23.550;2022-12-29T08:03:10;62.63;;;32.40;;
21360;SDS011;10839;43.206;23.550;2022-12-29T08:05:35;194.18;;;91.50;;
21360;SDS011;10839;43.206;23.550;2022-12-29T08:08:01;168.20;;;79.32;;
21360;SDS011;10839;43.206;23.550;2022-12-29T08:10:27;46.40;;;25.42;;
21360;SDS011;10839;43.206;23.550;2022-12-29T08:12:53;110.20;;;46.45;;
21360;SDS011;10839;43.206;23.550;2022-12-29T08:15:19;46.78;;;26.17;;
21360;SDS011;10839;43.206;23.550;2022-12-29T08:17:44;125.55;;;60.83;;
21360;SDS011;10839;43.206;23.550;2022-12-29T08:20:10;56.80;;;30.85;;
21360;SDS011;10839;43.206;23.550;2022-12-29T08:22:36;47.55;;;26.17;;
21360;SDS011;10839;43.206;23.550;2022-12-29T08:25:02;54.42;;;26.60;;
21360;SDS011;10839;43.206;23.550;2022-12-29T08:27:28;58.00;;;27.80;;
21360;SDS011;10839;43.206;23.550;2022-12-29T08:29:54;47.17;;;26.30;;
21360;SDS011;10839;43.206;23.550;2022-12-29T08:32:20;50.95;;;26.33;;
21360;SDS011;10839;43.206;23.550;2022-12-29T08:34:46;54.67;;;27.10;;
21360;SDS011;10839;43.206;23.550;2022-12-29T08:37:12;42.20;;;25.13;;
21360;SDS011;10839;43.206;23.550;2022-12-29T08:39:37;41.47;;;22.40;;
21360;SDS011;10839;43.206;23.550;2022-12-29T08:42:03;44.03;;;24.83;;
21360;SDS011;10839;43.206;23.550;2022-12-29T08:44:29;54.13;;;28.35;;
21360;SDS011;10839;43.206;23.550;2022-12-29T08:46:55;50.85;;;29.15;;
21360;SDS011;10839;43.206;23.550;2022-12-29T08:49:21;50.92;;;28.92;;
21360;SDS011;10839;43.206;23.550;2022-12-29T08:51:46;43.60;;;24.35;;
21360;SDS011;10839;43.206;23.550;2022-12-29T08:54:12;55.50;;;28.77;;
21360;SDS011;10839;43.206;23.550;2022-12-29T08:56:38;48.35;;;28.40;;
21360;SDS011;10839;43.206;23.550;2022-12-29T08:59:04;49.75;;;28.88;;
21360;SDS011;10839;43.206;23.550;2022-12-29T09:01:31;44.47;;;25.10;;
21360;SDS011;10839;43.206;23.550;2022-12-29T09:03:58;52.28;;;26.35;;
21360;SDS011;10839;43.206;23.550;2022-12-29T09:06:24;61.30;;;35.20;;
21360;SDS011;10839;43.206;23.550;2022-12-29T09:08:50;46.28;;;25.10;;
21360;SDS011;10839;43.206;23.550;2022-12-29T09:11:17;39.00;;;22.88;;
21360;SDS011;10839;43.206;23.550;2022-12-29T09:13:45;38.03;;;23.42;;
21360;SDS011;10839;43.206;23.550;2022-12-29T09:16:12;77.72;;;43.13;;
21360;SDS011;10839;43.206;23.550;2022-12-29T09:18:38;81.35;;;44.03;;
21360;SDS011;10839;43.206;23.550;2022-12-29T09:21:04;50.97;;;26.48;;
21360;SDS011;10839;43.206;23.550;2022-12-29T09:23:32;32.33;;;20.02;;
21360;SDS011;10839;43.206;23.550;2022-12-29T09:25:59;29.00;;;16.80;;
21360;SDS011;10839;43.206;23.550;2022-12-29T09:28:26;29.00;;;16.55;;
21360;SDS011;10839;43.206;23.550;2022-12-29T09:30:54;23.20;;;14.55;;
21360;SDS011;10839;43.206;23.550;2022-12-29T09:33:21;22.67;;;13.90;;
21360;SDS011;10839;43.206;23.550;2022-12-29T09:35:51;20.40;;;13.50;;
21360;SDS011;10839;43.206;23.550;2022-12-29T09:38:22;35.58;;;21.63;;
21360;SDS011;10839;43.206;23.550;2022-12-29T09:40:51;40.40;;;21.52;;
21360;SDS011;10839;43.206;23.550;2022-12-29T09:49:00;30.25;;;17.55;;
21360;SDS011;10839;43.206;23.550;2022-12-29T09:51:32;30.30;;;14.70;;
21360;SDS011;10839;43.206;23.550;2022-12-29T09:54:02;22.63;;;14.70;;
21360;SDS011;10839;43.206;23.550;2022-12-29T09:56:46;19.95;;;13.07;;
21360;SDS011;10839;43.206;23.550;2022-12-29T09:59:15;17.35;;;11.40;;
21360;SDS011;10839;43.206;23.550;2022-12-29T10:02:08;18.60;;;10.80;;
21360;SDS011;10839;43.206;23.550;2022-12-29T10:04:57;18.05;;;10.05;;
21360;SDS011;10839;43.206;23.550;2022-12-29T10:07:41;21.08;;;11.80;;
21360;SDS011;10839;43.206;23.550;2022-12-29T10:16:08;27.38;;;16.80;;
21360;SDS011;10839;43.206;23.550;2022-12-29T10:24:40;25.27;;;15.55;;
21360;SDS011;10839;43.206;23.550;2022-12-29T10:27:10;27.95;;;15.93;;
21360;SDS011;10839;43.206;23.550;2022-12-29T10:30:12;21.17;;;13.13;;
21360;SDS011;10839;43.206;23.550;2022-12-29T10:32:33;20.50;;;13.50;;
21360;SDS011;10839;43.206;23.550;2022-12-29T10:35:14;27.00;;;14.43;;
21360;SDS011;10839;43.206;23.550;2022-12-29T10:40:50;24.08;;;15.02;;
21360;SDS011;10839;43.206;23.550;2022-12-29T10:45:48;27.98;;;13.82;;
21360;SDS011;10839;43.206;23.550;2022-12-29T10:48:19;22.98;;;14.57;;
21360;SDS011;10839;43.206;23.550;2022-12-29T10:50:49;23.70;;;15.02;;
21360;SDS011;10839;43.206;23.550;2022-12-29T10:53:20;26.88;;;15.50;;
21360;SDS011;10839;43.206;23.550;2022-12-29T10:55:50;20.00;;;13.50;;
21360;SDS011;10839;43.206;23.550;2022-12-29T10:58:16;22.98;;;13.88;;
21360;SDS011;10839;43.206;23.550;2022-12-29T11:00:47;26.63;;;15.57;;
21360;SDS011;10839;43.206;23.550;2022-12-29T11:06:04;23.70;;;14.15;;
21360;SDS011;10839;43.206;23.550;2022-12-29T11:08:35;22.50;;;14.80;;
21360;SDS011;10839;43.206;23.550;2022-12-29T11:11:09;28.38;;;15.48;;
21360;SDS011;10839;43.206;23.550;2022-12-29T11:13:46;24.92;;;15.13;;
21360;SDS011;10839;43.206;23.550;2022-12-29T11:16:29;22.55;;;14.35;;
21360;SDS011;10839;43.206;23.550;2022-12-29T11:18:57;26.17;;;15.25;;
21360;SDS011;10839;43.206;23.550;2022-12-29T11:21:26;20.67;;;13.93;;
21360;SDS011;10839;43.206;23.550;2022-12-29T11:23:59;23.52;;;14.93;;
21360;SDS011;10839;43.206;23.550;2022-12-29T11:26:30;23.15;;;14.95;;
21360;SDS011;10839;43.206;23.550;2022-12-29T11:29:05;24.35;;;13.82;;
21360;SDS011;10839;43.206;23.550;2022-12-29T11:31:43;19.58;;;13.25;;
21360;SDS011;10839;43.206;23.550;2022-12-29T11:34:21;20.63;;;13.35;;
21360;SDS011;10839;43.206;23.550;2022-12-29T11:36:51;66.82;;;38.03;;
21360;SDS011;10839;43.206;23.550;2022-12-29T11:39:23;40.60;;;23.15;;
21360;SDS011;10839;43.206;23.550;2022-12-29T11:41:53;29.75;;;16.40;;
21360;SDS011;10839;43.206;23.550;2022-12-29T11:44:19;31.23;;;15.55;;
21360;SDS011;10839;43.206;23.550;2022-12-29T11:46:46;27.95;;;15.57;;
21360;SDS011;10839;43.206;23.550;2022-12-29T11:49:18;22.58;;;13.50;;
21360;SDS011;10839;43.206;23.550;2022-12-29T11:51:48;23.10;;;14.07;;
21360;SDS011;10839;43.206;23.550;2022-12-29T11:54:18;29.40;;;14.45;;
21360;SDS011;10839;43.206;23.550;2022-12-29T11:56:48;20.15;;;14.18;;
21360;SDS011;10839;43.206;23.550;2022-12-29T12:07:44;23.60;;;14.55;;
21360;SDS011;10839;43.206;23.550;2022-12-29T12:10:34;27.90;;;16.65;;
21360;SDS011;10839;43.206;23.550;2022-12-29T12:15:55;25.88;;;14.43;;
21360;SDS011;10839;43.206;23.550;2022-12-29T12:19:02;26.77;;;15.88;;
21360;SDS011;10839;43.206;23.550;2022-12-29T12:21:43;27.67;;;13.98;;
21360;SDS011;10839;43.206;23.550;2022-12-29T12:27:12;22.35;;;13.98;;
21360;SDS011;10839;43.206;23.550;2022-12-29T12:29:50;22.70;;;13.80;;
21360;SDS011;10839;43.206;23.550;2022-12-29T12:32:45;19.10;;;12.68;;
21360;SDS011;10839;43.206;23.550;2022-12-29T12:41:16;24.95;;;13.05;;
21360;SDS011;10839;43.206;23.550;2022-12-29T12:43:49;28.00;;;14.98;;
21360;SDS011;10839;43.206;23.550;2022-12-29T13:00:13;73.50;;;40.92;;
21360;SDS011;10839;43.206;23.550;2022-12-29T13:05:43;24.65;;;15.23;;
21360;SDS011;10839;43.206;23.550;2022-12-29T13:14:02;42.42;;;21.33;;
21360;SDS011;10839;43.206;23.550;2022-12-29T13:17:21;127.05;;;59.95;;
21360;SDS011;10839;43.206;23.550;2022-12-29T13:35:41;40.20;;;21.48;;
21360;SDS011;10839;43.206;23.550;2022-12-29T13:38:19;64.20;;;29.15;;
21360;SDS011;10839;43.206;23.550;2022-12-29T13:40:50;46.72;;;25.38;;
21360;SDS011;10839;43.206;23.550;2022-12-29T13:43:21;42.17;;;23.73;;
21360;SDS011;10839;43.206;23.550;2022-12-29T13:45:50;44.08;;;23.05;;
21360;SDS011;10839;43.206;23.550;2022-12-29T13:48:28;41.72;;;21.45;;
21360;SDS011;10839;43.206;23.550;2022-12-29T13:51:01;43.45;;;23.33;;
21360;SDS011;10839;43.206;23.550;2022-12-29T13:56:19;39.42;;;20.88;;
21360;SDS011;10839;43.206;23.550;2022-12-29T13:58:57;75.07;;;41.22;;
21360;SDS011;10839;43.206;23.550;2022-12-29T14:01:33;31.45;;;17.98;;
21360;SDS011;10839;43.206;23.550;2022-12-29T14:04:09;29.73;;;16.50;;
21360;SDS011;10839;43.206;23.550;2022-12-29T14:06:38;30.52;;;16.95;;
21360;SDS011;10839;43.206;23.550;2022-12-29T14:09:06;39.10;;;19.05;;
21360;SDS011;10839;43.206;23.550;2022-12-29T14:11:51;29.52;;;16.02;;
21360;SDS011;10839;43.206;23.550;2022-12-29T14:14:19;30.30;;;15.55;;
21360;SDS011;10839;43.206;23.550;2022-12-29T14:16:46;34.58;;;17.55;;
21360;SDS011;10839;43.206;23.550;2022-12-29T14:22:02;36.05;;;18.92;;
21360;SDS011;10839;43.206;23.550;2022-12-29T14:27:51;43.22;;;22.63;;
21360;SDS011;10839;43.206;23.550;2022-12-29T14:29:46;51.95;;;27.10;;
21360;SDS011;10839;43.206;23.550;2022-12-29T14:34:46;56.03;;;28.85;;
21360;SDS011;10839;43.206;23.550;2022-12-29T14:37:28;58.38;;;29.70;;
21360;SDS011;10839;43.206;23.550;2022-12-29T14:42:30;63.97;;;33.25;;
21360;SDS011;10839;43.206;23.550;2022-12-29T14:45:08;71.93;;;38.45;;
21360;SDS011;10839;43.206;23.550;2022-12-29T14:47:58;53.22;;;28.90;;
21360;SDS011;10839;43.206;23.550;2022-12-29T14:50:34;56.28;;;29.13;;
21360;SDS011;10839;43.206;23.550;2022-12-29T14:53:09;45.28;;;21.70;;
21360;SDS011;10839;43.206;23.550;2022-12-29T14:56:09;69.10;;;32.88;;
21360;SDS011;10839;43.206;23.550;2022-12-29T15:01:05;24.65;;;12.55;;
21360;SDS011;10839;43.206;23.550;2022-12-29T15:03:52;60.13;;;29.90;;
21360;SDS011;10839;43.206;23.550;2022-12-29T15:06:23;40.75;;;21.70;;
21360;SDS011;10839;43.206;23.550;2022-12-29T15:11:48;31.30;;;16.77;;
21360;SDS011;10839;43.206;23.550;2022-12-29T15:14:31;34.15;;;18.20;;
21360;SDS011;10839;43.206;23.550;2022-12-29T15:17:08;67.30;;;32.75;;
21360;SDS011;10839;43.206;23.550;2022-12-29T15:19:36;40.17;;;20.98;;
21360;SDS011;10839;43.206;23.550;2022-12-29T15:22:02;49.20;;;26.08;;
21360;SDS011;10839;43.206;23.550;2022-12-29T15:24:28;31.95;;;16.98;;
21360;SDS011;10839;43.206;23.550;2022-12-29T15:26:54;37.10;;;22.45;;
21360;SDS011;10839;43.206;23.550;2022-12-29T15:29:30;44.17;;;24.60;;
21360;SDS011;10839;43.206;23.550;2022-12-29T15:31:58;30.67;;;17.33;;
21360;SDS011;10839;43.206;23.550;2022-12-29T15:34:29;33.30;;;20.50;;
21360;SDS011;10839;43.206;23.550;2022-12-29T15:36:56;31.73;;;18.95;;
21360;SDS011;10839;43.206;23.550;2022-12-29T15:39:28;24.90;;;13.68;;
21360;SDS011;10839;43.206;23.550;2022-12-29T15:42:03;26.35;;;15.82;;
21360;SDS011;10839;43.206;23.550;2022-12-29T15:44:42;31.23;;;16.67;;
21360;SDS011;10839;43.206;23.550;2022-12-29T15:47:19;58.28;;;23.67;;
21360;SDS011;10839;43.206;23.550;2022-12-29T15:49:48;42.60;;;19.70;;
21360;SDS011;10839;43.206;23.550;2022-12-29T15:52:19;29.52;;;14.30;;
21360;SDS011;10839;43.206;23.550;2022-12-29T15:54:46;33.00;;;16.13;;
21360;SDS011;10839;43.206;23.550;2022-12-29T15:59:48;71.63;;;30.60;;
21360;SDS011;10839;43.206;23.550;2022-12-29T16:02:13;37.95;;;18.10;;
21360;SDS011;10839;43.206;23.550;2022-12-29T16:04:40;62.85;;;30.92;;
21360;SDS011;10839;43.206;23.550;2022-12-29T16:07:27;34.75;;;18.38;;
21360;SDS011;10839;43.206;23.550;2022-12-29T16:09:59;48.92;;;24.88;;
21360;SDS011;10839;43.206;23.550;2022-12-29T16:12:29;56.88;;;28.98;;
21360;SDS011;10839;43.206;23.550;2022-12-29T16:14:59;49.50;;;22.80;;
21360;SDS011;10839;43.206;23.550;2022-12-29T16:17:29;43.28;;;22.65;;
21360;SDS011;10839;43.206;23.550;2022-12-29T16:20:06;42.53;;;21.52;;
21360;SDS011;10839;43.206;23.550;2022-12-29T16:22:57;39.90;;;22.25;;
21360;SDS011;10839;43.206;23.550;2022-12-29T16:25:28;48.47;;;24.50;;
21360;SDS011;10839;43.206;23.550;2022-12-29T16:27:57;41.95;;;22.88;;
21360;SDS011;10839;43.206;23.550;2022-12-29T16:30:26;43.28;;;22.48;;
21360;SDS011;10839;43.206;23.550;2022-12-29T16:32:58;44.13;;;22.42;;
21360;SDS011;10839;43.206;23.550;2022-12-29T16:35:27;33.83;;;18.48;;
21360;SDS011;10839;43.206;23.550;2022-12-29T16:40:53;35.25;;;18.27;;
21360;SDS011;10839;43.206;23.550;2022-12-29T16:43:23;40.67;;;20.60;;
21360;SDS011;10839;43.206;23.550;2022-12-29T16:48:20;30.70;;;17.67;;
21360;SDS011;10839;43.206;23.550;2022-12-29T16:50:49;32.40;;;16.85;;
21360;SDS011;10839;43.206;23.550;2022-12-29T16:55:50;32.70;;;17.23;;
21360;SDS011;10839;43.206;23.550;2022-12-29T16:58:29;33.45;;;17.23;;
21360;SDS011;10839;43.206;23.550;2022-12-29T17:00:57;23.13;;;12.27;;
21360;SDS011;10839;43.206;23.550;2022-12-29T17:03:28;18.42;;;9.07;;
21360;SDS011;10839;43.206;23.550;2022-12-29T17:06:03;27.08;;;13.30;;
21360;SDS011;10839;43.206;23.550;2022-12-29T17:08:38;33.75;;;17.17;;
21360;SDS011;10839;43.206;23.550;2022-12-29T17:11:08;36.78;;;19.35;;
21360;SDS011;10839;43.206;23.550;2022-12-29T17:14:34;31.85;;;15.95;;
21360;SDS011;10839;43.206;23.550;2022-12-29T17:17:49;35.92;;;19.83;;